createdAt,value
2019-06-07T00:00:39.903Z,13.22
2019-06-07T00:05:43.361Z,15.72
2019-06-07T00:10:48.186Z,16.40
2019-06-07T00:15:53.047Z,17.75
2019-06-07T00:20:57.837Z,15.72
2019-06-07T00:26:02.612Z,14.93
2019-06-07T00:31:08.950Z,14.58
2019-06-07T00:36:17.654Z,15.23
2019-06-07T00:41:22.406Z,15.55
2019-06-07T00:46:27.495Z,14.90
2019-06-07T00:51:49.513Z,14.18
2019-06-07T00:56:39.199Z,13.08
2019-06-07T01:01:44.099Z,11.15
2019-06-07T01:06:48.879Z,10.43
2019-06-07T01:11:53.837Z,10.05
2019-06-07T01:17:22.069Z,9.80
2019-06-07T01:22:05.168Z,9.38
2019-06-07T01:27:09.866Z,9.95
2019-06-07T01:32:17.518Z,8.85
2019-06-07T01:37:25.128Z,8.90
2019-06-07T01:42:30.918Z,8.80
2019-06-07T01:47:36.002Z,9.48
2019-06-07T01:52:40.976Z,9.48
2019-06-07T01:57:48.580Z,9.15
2019-06-07T02:02:52.267Z,9.48
2019-06-07T02:07:56.940Z,8.63
2019-06-07T02:13:01.848Z,8.10
2019-06-07T02:18:06.820Z,8.25
2019-06-07T02:23:15.042Z,8.63
2019-06-07T02:33:31.139Z,8.53
2019-06-07T02:38:37.525Z,8.45
2019-06-07T02:43:41.167Z,8.38
2019-06-07T02:48:46.132Z,7.97
2019-06-07T02:53:51.369Z,7.55
2019-06-07T02:58:56.409Z,7.10
2019-06-07T03:04:01.797Z,7.80
2019-06-07T03:09:08.452Z,7.95
2019-06-07T03:14:13.516Z,8.08
2019-06-07T03:19:22.519Z,7.17
2019-06-07T03:24:30.056Z,7.45
2019-06-07T03:29:36.488Z,6.78
2019-06-07T03:34:43.484Z,6.55
2019-06-07T03:39:47.179Z,6.53
2019-06-07T03:44:52.097Z,7.37
2019-06-07T03:49:59.553Z,7.10
2019-06-07T03:55:06.275Z,7.37
2019-06-07T04:00:12.315Z,7.67
2019-06-07T04:05:17.120Z,6.60
2019-06-07T04:10:44.834Z,7.22
2019-06-07T04:15:28.457Z,6.83
2019-06-07T04:20:35.737Z,6.85
2019-06-07T04:25:42.473Z,7.22
2019-06-07T04:30:46.849Z,6.83
2019-06-07T04:35:53.322Z,7.17
2019-06-07T04:41:00.723Z,5.53
2019-06-07T04:46:07.049Z,5.72
2019-06-07T04:51:14.089Z,5.12
2019-06-07T04:56:19.150Z,5.28
2019-06-07T05:01:27.826Z,5.50
2019-06-07T05:06:32.939Z,5.28
2019-06-07T05:11:39.304Z,5.62
2019-06-07T05:16:44.526Z,6.15
2019-06-07T05:22:03.824Z,6.35
2019-06-07T05:26:55.872Z,5.35
2019-06-07T05:32:01.164Z,5.35
2019-06-07T05:37:12.203Z,4.78
2019-06-07T05:42:13.822Z,5.03
2019-06-07T05:47:18.595Z,5.15
2019-06-07T05:52:23.389Z,4.78
2019-06-07T05:57:28.291Z,4.83
2019-06-07T06:02:50.396Z,5.28
2019-06-07T06:07:49.126Z,4.92
2019-06-07T06:12:51.798Z,4.47
2019-06-07T06:17:57.014Z,4.25
2019-06-07T06:23:02.125Z,3.70
2019-06-07T06:28:12.205Z,5.58
2019-06-07T06:33:30.569Z,3.90
2019-06-07T06:38:20.282Z,5.00
2019-06-07T06:43:25.392Z,9.18
2019-06-07T06:48:30.141Z,9.80
2019-06-07T06:53:40.102Z,10.30
2019-06-07T06:59:34.113Z,8.68
2019-06-07T07:04:11.581Z,8.65
2019-06-07T07:08:59.132Z,7.47
2019-06-07T07:14:03.929Z,7.00
2019-06-07T07:19:08.813Z,7.00
2019-06-07T07:24:21.825Z,5.72
2019-06-07T07:29:21.997Z,4.75
2019-06-07T07:34:35.361Z,5.08
2019-06-07T07:39:33.510Z,4.70
2019-06-07T07:44:38.411Z,4.75
2019-06-07T07:49:44.769Z,4.70
2019-06-07T07:54:52.056Z,4.15
2019-06-07T08:00:25.325Z,3.72
2019-06-07T08:05:25.563Z,3.10
2019-06-07T08:10:09.351Z,2.90
2019-06-07T08:15:15.813Z,2.70
2019-06-07T08:20:21.104Z,2.65
2019-06-07T08:25:25.974Z,2.10
2019-06-07T08:36:05.740Z,4.03
2019-06-07T08:40:43.543Z,3.95
2019-06-07T08:45:51.261Z,4.00
2019-06-07T08:51:00.708Z,4.15
2019-06-07T08:56:09.020Z,4.25
2019-06-07T09:01:10.294Z,3.42
2019-06-07T09:06:53.923Z,3.17
2019-06-07T09:11:21.782Z,3.85
2019-06-07T09:16:26.796Z,3.77
2019-06-07T09:21:31.580Z,3.58
2019-06-07T09:26:36.391Z,4.03
2019-06-07T09:31:52.987Z,4.00
2019-06-07T09:36:47.874Z,4.10
2019-06-07T09:41:52.614Z,4.00
2019-06-07T09:47:20.170Z,4.40
2019-06-07T09:52:09.079Z,5.12
2019-06-07T09:57:16.667Z,5.60
2019-06-07T10:02:16.788Z,5.45
2019-06-07T10:07:31.273Z,6.15
2019-06-07T10:12:28.860Z,6.87
2019-06-07T10:17:33.722Z,6.83
2019-06-07T10:22:38.619Z,6.17
2019-06-07T10:27:43.481Z,6.15
2019-06-07T10:32:51.931Z,5.95
2019-06-07T10:37:54.717Z,5.42
2019-06-07T10:43:00.850Z,7.08
2019-06-07T10:48:06.040Z,5.85
2019-06-07T10:53:10.936Z,5.70
2019-06-07T10:58:16.208Z,6.08
2019-06-07T11:03:21.079Z,5.75
2019-06-07T11:08:25.844Z,4.62
2019-06-07T11:13:31.028Z,6.12
2019-06-07T11:18:35.827Z,5.08
2019-06-07T11:23:40.981Z,5.90
2019-06-07T11:28:48.721Z,5.95
2019-06-07T11:38:57.904Z,5.53
2019-06-07T11:44:02.741Z,6.33
2019-06-07T11:49:19.914Z,5.80
2019-06-07T11:54:20.672Z,5.75
2019-06-07T11:59:25.722Z,6.10
2019-06-07T12:04:34.840Z,5.70
2019-06-07T12:09:36.731Z,5.70
2019-06-07T12:14:42.052Z,5.55
2019-06-07T12:19:46.896Z,5.33
2019-06-07T12:24:51.721Z,6.30
2019-06-07T12:29:56.554Z,5.60
2019-06-07T12:35:01.176Z,5.95
2019-06-07T12:40:07.689Z,5.85
2019-06-07T12:45:14.376Z,5.92
2019-06-07T12:50:19.632Z,5.70
2019-06-07T12:55:24.904Z,5.75
2019-06-07T13:00:30.019Z,5.28
2019-06-07T13:05:35.062Z,5.30
2019-06-07T13:10:40.484Z,5.53
2019-06-07T13:15:46.434Z,5.33
2019-06-07T13:20:55.379Z,5.15
2019-06-07T13:25:59.255Z,5.37
2019-06-07T13:31:04.216Z,4.90
2019-06-07T13:36:10.270Z,5.33
2019-06-07T13:41:31.456Z,5.15
2019-06-07T13:46:23.032Z,4.67
2019-06-07T13:51:28.862Z,4.87
2019-06-07T13:56:33.935Z,4.90
2019-06-07T14:01:38.710Z,4.80
2019-06-07T14:06:43.560Z,5.10
2019-06-07T14:11:50.903Z,4.50
2019-06-07T14:16:55.837Z,5.05
2019-06-07T14:27:06.809Z,6.58
2019-06-07T14:32:12.215Z,5.50
2019-06-07T14:37:17.102Z,5.40
2019-06-07T14:42:23.344Z,5.78
2019-06-07T14:47:32.002Z,5.80
2019-06-07T14:52:37.119Z,6.50
2019-06-07T14:57:42.163Z,6.40
2019-06-07T15:02:47.135Z,6.92
2019-06-07T15:07:52.189Z,6.55
2019-06-07T15:12:58.600Z,6.65
2019-06-07T15:18:03.475Z,6.92
2019-06-07T15:23:08.367Z,6.20
2019-06-07T15:28:13.380Z,7.05
2019-06-07T15:33:18.284Z,7.10
2019-06-07T15:38:23.220Z,7.12
2019-06-07T15:43:29.410Z,5.95
2019-06-07T15:48:35.979Z,6.55
2019-06-07T15:53:44.179Z,7.50
2019-06-07T15:58:47.646Z,6.83
2019-06-07T16:03:52.859Z,6.70
2019-06-07T16:08:57.754Z,6.62
2019-06-07T16:14:02.860Z,7.15
2019-06-07T16:19:07.734Z,6.33
2019-06-07T16:24:12.706Z,6.30
2019-06-07T16:30:42.604Z,6.90
2019-06-07T16:35:49.928Z,6.47
2019-06-07T16:40:55.996Z,5.90
2019-06-07T16:46:00.981Z,6.30
2019-06-07T16:51:05.882Z,5.87
2019-06-07T16:56:10.719Z,5.87
2019-06-07T17:01:15.764Z,6.00
2019-06-07T17:06:20.890Z,6.80
2019-06-07T17:11:25.985Z,6.97
2019-06-07T17:16:30.991Z,6.25
2019-06-07T17:21:35.761Z,6.30
2019-06-07T17:26:41.611Z,9.20
2019-06-07T17:31:48.170Z,6.58
2019-06-07T17:36:55.038Z,6.33
2019-06-07T17:56:19.249Z,6.53
2019-06-07T18:01:24.452Z,6.78
2019-06-07T18:06:29.531Z,6.90
2019-06-07T18:11:34.314Z,6.28
2019-06-07T18:16:39.178Z,6.33
2019-06-07T18:21:45.511Z,7.15
2019-06-07T18:26:50.530Z,6.25
2019-06-07T18:31:55.545Z,7.67
2019-06-07T18:37:00.322Z,7.85
2019-06-07T18:42:05.740Z,8.15
2019-06-07T18:47:10.644Z,8.83
2019-06-07T18:52:18.543Z,8.60
2019-06-07T18:57:24.425Z,9.05
2019-06-07T19:02:30.305Z,8.20
2019-06-07T19:07:35.561Z,9.53
2019-06-07T19:12:42.362Z,7.80
2019-06-07T19:17:47.028Z,7.78
2019-06-07T19:22:52.140Z,8.25
2019-06-07T19:27:57.128Z,10.13
2019-06-07T19:33:04.831Z,12.53
2019-06-07T19:38:11.271Z,12.88
2019-06-07T19:43:16.101Z,11.90
2019-06-07T19:48:20.960Z,12.58
2019-06-07T19:53:26.063Z,12.80
2019-06-07T19:58:31.110Z,13.80
2019-06-07T20:03:35.853Z,14.07
2019-06-07T20:08:40.789Z,14.53
2019-06-07T20:13:45.756Z,14.05
2019-06-07T20:18:50.583Z,13.30
2019-06-07T20:23:56.685Z,12.45
2019-06-07T20:29:01.664Z,11.12
2019-06-07T20:34:06.536Z,11.12
2019-06-07T20:39:11.688Z,10.88
2019-06-07T20:44:16.446Z,11.43
2019-06-07T20:49:21.317Z,12.88
2019-06-07T20:54:26.289Z,11.97
2019-06-07T20:59:31.101Z,12.37
2019-06-07T21:04:37.456Z,13.53
2019-06-07T21:09:42.374Z,13.83
2019-06-07T21:14:47.955Z,13.80
2019-06-07T21:19:52.824Z,12.85
2019-06-07T21:25:00.682Z,12.98
2019-06-07T21:30:09.629Z,13.75
2019-06-07T21:35:23.766Z,12.18
